Time;durP1;ratioP1;P1;durP2;ratioP2;P2;SDS_P1;SDS_P2;PMS_P1;PMS_P2;Temp;Humidity;BMP_temperature;BMP_pressure;BME280_temperature;BME280_humidity;BME280_pressure;Samples;Min_cycle;Max_cycle;Signal;HPM_P1;HPM_P2
2022/11/11 00:01:16;;;;;;;;;9.50;8.50;;;;;5.06;88.32;99857.94;4913199;28;104097;-70
2022/11/11 00:03:43;;;;;;;;;8.25;8.25;;;;;5.07;88.39;99872.19;4896538;28;102402;-69
2022/11/11 00:06:15;;;;;;;;;11.75;9.75;;;;;5.09;88.06;99873.72;4907865;28;102387;-69
2022/11/11 00:08:46;;;;;;;;;7.25;7.00;;;;;5.10;88.46;99872.75;4915577;28;102533;-70
2022/11/11 00:11:15;;;;;;;;;9.50;8.00;;;;;5.13;88.54;99882.38;4905172;28;103805;-69
2022/11/11 00:13:43;;;;;;;;;13.50;8.75;;;;;5.16;88.68;99885.63;4904127;28;102266;-69
2022/11/11 00:16:16;;;;;;;;;15.00;12.00;;;;;5.18;88.57;99885.50;4916078;28;102110;-69
2022/11/11 00:26:54;;;;;;;;;6.50;4.00;;;;;5.15;88.27;99900.00;4911124;28;102948;-70
2022/11/11 00:29:21;;;;;;;;;9.50;7.75;;;;;5.11;87.79;99895.06;4916513;28;102341;-69
2022/11/11 00:32:33;;;;;;;;;13.00;10.25;;;;;5.12;88.16;99900.28;4916554;28;108756;-69
2022/11/11 00:34:35;;;;;;;;;9.00;7.50;;;;;5.12;88.14;99904.81;4900602;28;102497;-70
2022/11/11 00:37:02;;;;;;;;;8.25;8.25;;;;;5.11;88.25;99903.09;4908681;28;102550;-69
2022/11/11 00:39:29;;;;;;;;;10.50;8.75;;;;;5.10;88.33;99904.94;4912810;28;102165;-70
2022/11/11 00:41:56;;;;;;;;;9.75;9.50;;;;;5.10;88.17;99899.56;4927117;28;103989;-69
2022/11/11 00:44:23;;;;;;;;;9.50;8.25;;;;;5.10;88.12;99909.44;4912578;28;102160;-70
2022/11/11 00:52:21;;;;;;;;;12.00;10.00;;;;;5.08;87.84;99895.34;4897545;28;108776;-70
2022/11/11 00:54:48;;;;;;;;;6.00;5.00;;;;;5.07;88.29;99894.47;4912449;28;102111;-69
2022/11/11 00:57:15;;;;;;;;;11.50;9.50;;;;;5.08;88.35;99892.66;4906993;28;102366;-69
2022/11/11 00:59:42;;;;;;;;;6.25;5.00;;;;;5.09;88.44;99902.41;4909078;28;102473;-70
2022/11/11 01:02:09;;;;;;;;;9.00;9.00;;;;;5.12;88.41;99900.28;4905549;28;104077;-69
2022/11/11 01:04:36;;;;;;;;;4.25;3.50;;;;;5.17;88.60;99898.06;4912199;28;102571;-69
2022/11/11 01:07:03;;;;;;;;;8.75;8.00;;;;;5.24;88.84;99891.16;4901025;28;101908;-70
2022/11/11 01:09:30;;;;;;;;;7.25;6.25;;;;;5.28;88.90;99895.25;4907605;28;102018;-70
2022/11/11 01:11:57;;;;;;;;;10.75;10.25;;;;;5.31;89.48;99892.31;4904300;28;104441;-70
2022/11/11 01:14:24;;;;;;;;;19.00;16.00;;;;;5.33;89.91;99887.66;4920130;28;102455;-70
2022/11/11 01:16:51;;;;;;;;;14.25;10.25;;;;;5.41;89.86;99886.97;4925499;28;102435;-69
2022/11/11 01:19:18;;;;;;;;;19.75;17.75;;;;;5.49;89.63;99884.47;4924936;28;102080;-70
2022/11/11 01:21:45;;;;;;;;;15.00;12.50;;;;;5.56;89.55;99880.25;4907042;28;103973;-70
2022/11/11 01:24:12;;;;;;;;;13.75;13.75;;;;;5.59;89.31;99881.78;4907582;28;107887;-70
2022/11/11 01:26:39;;;;;;;;;20.00;15.50;;;;;5.64;89.34;99883.09;4908365;28;102363;-70
2022/11/11 01:29:06;;;;;;;;;19.00;15.00;;;;;5.70;89.34;99877.16;4903265;28;102411;-70
2022/11/11 01:31:33;;;;;;;;;10.00;7.75;;;;;5.77;89.18;99882.81;4915930;28;103982;-69
2022/11/11 01:34:00;;;;;;;;;15.00;10.75;;;;;5.84;88.87;99865.19;4911395;28;102190;-70
2022/11/11 01:36:28;;;;;;;;;7.25;7.25;;;;;5.87;88.71;99867.59;4909212;28;102065;-70
2022/11/11 01:38:58;;;;;;;;;7.75;7.00;;;;;5.94;88.44;99871.44;4908022;28;102421;-70
2022/11/11 01:41:32;;;;;;;;;4.50;4.50;;;;;5.99;88.20;99874.53;4908976;28;104069;-70
2022/11/11 01:44:09;;;;;;;;;8.00;7.00;;;;;6.04;88.49;99880.31;4895788;28;102307;-70
2022/11/11 01:46:42;;;;;;;;;6.00;6.00;;;;;6.10;88.35;99882.47;4902072;28;102343;-70
2022/11/11 01:49:28;;;;;;;;;4.00;3.50;;;;;6.14;88.28;99881.19;4907960;28;101971;-70
2022/11/11 01:52:19;;;;;;;;;5.00;3.25;;;;;6.17;88.05;99880.88;4900493;28;108814;-70
2022/11/11 01:54:52;;;;;;;;;3.00;3.00;;;;;6.22;87.75;99875.94;4908121;28;102248;-70
2022/11/11 01:57:31;;;;;;;;;8.25;6.25;;;;;6.25;88.24;99873.00;4901767;28;102419;-70
2022/11/11 02:00:03;;;;;;;;;3.75;3.50;;;;;6.23;88.00;99866.91;4913641;28;102036;-70
2022/11/11 02:02:40;;;;;;;;;5.75;5.50;;;;;6.32;88.12;99875.09;4902254;28;103900;-70
2022/11/11 02:08:37;;;;;;;;;3.50;3.50;;;;;6.38;87.92;99866.47;4908198;28;102098;-70
2022/11/11 02:14:36;;;;;;;;;4.00;3.00;;;;;6.45;87.49;99878.31;4907909;28;107689;-71
2022/11/11 02:17:24;;;;;;;;;6.00;6.00;;;;;6.47;87.52;99879.88;4914879;28;102617;-70
2022/11/11 02:20:11;;;;;;;;;6.50;4.50;;;;;6.49;87.39;99885.94;4899060;28;104108;-70
2022/11/11 02:23:00;;;;;;;;;2.00;1.00;;;;;6.52;87.38;99884.84;4907479;28;102498;-70
2022/11/11 02:25:31;;;;;;;;;10.00;9.00;;;;;6.54;87.36;99880.16;4907676;28;104135;-70
2022/11/11 02:28:04;;;;;;;;;6.50;5.50;;;;;6.55;87.56;99892.59;4897373;28;102308;-70
2022/11/11 02:30:31;;;;;;;;;5.25;5.00;;;;;6.56;87.58;99887.09;4907049;28;102356;-70
2022/11/11 02:32:58;;;;;;;;;4.00;4.00;;;;;6.58;87.14;99890.47;4908365;28;102352;-70
2022/11/11 02:35:33;;;;;;;;;4.00;4.00;;;;;6.63;87.61;99895.41;4903159;28;103880;-70
2022/11/11 02:38:07;;;;;;;;;5.50;5.00;;;;;6.65;86.91;99898.81;4904159;28;102902;-70
2022/11/11 02:43:32;;;;;;;;;3.25;3.25;;;;;6.67;86.64;99888.75;4889747;28;102413;-70
2022/11/11 02:46:01;;;;;;;;;5.00;5.00;;;;;6.71;86.78;99888.31;4906159;28;104200;-70
2022/11/11 02:48:29;;;;;;;;;6.50;5.50;;;;;6.57;86.90;99872.66;4909253;28;102229;-70
2022/11/11 02:50:56;;;;;;;;;3.50;3.25;;;;;6.71;86.92;99890.16;4908745;28;102322;-69
2022/11/11 02:53:24;;;;;;;;;7.00;5.50;;;;;6.58;86.64;99871.66;4922814;28;102127;-69
2022/11/11 02:55:51;;;;;;;;;6.25;5.25;;;;;6.78;87.16;99906.56;4902457;28;103992;-70
2022/11/11 02:58:18;;;;;;;;;3.75;3.25;;;;;6.80;86.80;99910.78;4906221;28;102008;-69
2022/11/11 03:00:45;;;;;;;;;3.00;3.00;;;;;6.82;86.86;99906.13;4914391;28;102126;-69
2022/11/11 03:03:12;;;;;;;;;1.75;1.25;;;;;6.83;86.68;99901.59;4910781;28;102097;-69
2022/11/11 03:05:40;;;;;;;;;1.50;1.50;;;;;6.85;87.19;99894.22;4900064;28;104084;-69
2022/11/11 03:08:07;;;;;;;;;4.25;3.50;;;;;6.84;86.49;99888.03;4903373;28;102439;-69
2022/11/11 03:10:34;;;;;;;;;6.50;6.00;;;;;6.86;86.98;99909.34;4908706;28;103099;-68
2022/11/11 03:13:01;;;;;;;;;2.50;2.50;;;;;6.87;86.89;99894.94;4914657;28;102541;-69
2022/11/11 03:15:28;;;;;;;;;1.50;1.25;;;;;6.87;86.85;99898.47;4908177;28;104147;-69
2022/11/11 03:17:55;;;;;;;;;2.00;1.00;;;;;6.88;86.46;99900.19;4904481;28;102770;-69
2022/11/11 03:23:13;;;;;;;;;7.00;3.25;;;;;6.91;86.88;99902.56;4911721;28;102556;-69
2022/11/11 03:25:44;;;;;;;;;6.25;5.25;;;;;6.89;86.34;99888.41;4905076;28;104001;-70
2022/11/11 03:28:16;;;;;;;;;7.25;6.00;;;;;6.90;86.54;99891.94;4904342;28;102270;-69
2022/11/11 03:30:49;;;;;;;;;5.00;3.00;;;;;6.88;86.33;99892.09;4914579;28;101983;-69
2022/11/11 03:33:17;;;;;;;;;6.00;4.25;;;;;6.86;86.62;99886.00;4908396;28;102186;-70
2022/11/11 03:35:47;;;;;;;;;9.00;8.00;;;;;6.87;86.13;99892.25;4921413;28;103641;-70
2022/11/11 03:38:23;;;;;;;;;7.00;7.00;;;;;6.83;86.34;99889.00;4911134;28;102382;-70
2022/11/11 03:40:55;;;;;;;;;14.00;10.25;;;;;6.82;86.52;99883.75;4920440;28;102435;-70
2022/11/11 03:43:26;;;;;;;;;11.00;8.75;;;;;6.80;86.48;99886.59;4909676;28;102386;-70
2022/11/11 03:45:56;;;;;;;;;10.00;7.75;;;;;6.78;86.55;99887.75;4903873;28;108793;-70
2022/11/11 03:48:25;;;;;;;;;13.75;10.75;;;;;6.76;86.24;99887.88;4914001;28;102477;-70
2022/11/11 03:50:52;;;;;;;;;13.25;10.50;;;;;6.70;85.93;99889.31;4911863;28;102861;-70
2022/11/11 03:53:20;;;;;;;;;10.25;7.75;;;;;6.67;86.50;99897.66;4897790;28;102124;-70
2022/11/11 03:55:49;;;;;;;;;8.50;7.50;;;;;6.64;86.66;99892.59;4911450;28;104052;-70
2022/11/11 03:58:17;;;;;;;;;7.25;7.00;;;;;6.60;86.37;99883.13;4899596;28;102325;-70
2022/11/11 04:00:44;;;;;;;;;15.00;10.50;;;;;6.53;86.78;99881.16;4917991;28;102469;-69
2022/11/11 04:11:38;;;;;;;;;5.75;4.25;;;;;6.40;86.68;99885.97;4908308;28;102287;-70
2022/11/11 04:16:57;;;;;;;;;13.00;11.25;;;;;6.17;86.78;99864.78;4898317;28;108840;-70
2022/11/11 04:22:10;;;;;;;;;6.00;4.00;;;;;6.23;86.74;99891.06;4904827;28;102469;-70
2022/11/11 04:27:22;;;;;;;;;8.00;3.25;;;;;6.18;86.70;99893.34;4905220;28;108743;-70
2022/11/11 04:29:51;;;;;;;;;6.50;6.00;;;;;5.94;86.63;99860.72;4908530;28;103109;-69
2022/11/11 04:32:41;;;;;;;;;6.00;4.00;;;;;6.15;86.68;99906.19;4912278;28;102821;-70
2022/11/11 04:35:11;;;;;;;;;4.00;3.00;;;;;6.12;87.06;99907.31;4909199;28;103834;-70
2022/11/11 04:37:46;;;;;;;;;5.50;3.00;;;;;6.10;86.58;99906.63;4903544;28;104070;-69
2022/11/11 04:42:59;;;;;;;;;4.50;3.25;;;;;6.03;86.09;99915.38;4901754;28;102200;-70
2022/11/11 04:45:34;;;;;;;;;4.50;2.00;;;;;6.00;86.65;99907.59;4905448;28;102451;-70
2022/11/11 04:48:07;;;;;;;;;2.75;1.00;;;;;5.98;86.36;99915.81;4897359;28;103793;-69
2022/11/11 04:50:37;;;;;;;;;2.00;1.75;;;;;5.99;86.69;99914.78;4907513;28;102258;-70
2022/11/11 04:53:07;;;;;;;;;2.50;1.25;;;;;6.02;87.05;99913.69;4914920;28;102391;-70
2022/11/11 04:58:22;;;;;;;;;3.50;3.00;;;;;6.04;86.92;99919.75;4912913;28;103993;-70
2022/11/11 05:00:49;;;;;;;;;2.00;1.25;;;;;6.06;86.50;99920.47;4911711;28;102216;-69
2022/11/11 05:03:17;;;;;;;;;2.25;1.50;;;;;6.07;86.55;99922.16;4906576;28;102489;-69
2022/11/11 05:08:55;;;;;;;;;3.75;2.00;;;;;6.10;85.93;99948.72;4909858;28;108607;-70
2022/11/11 05:11:25;;;;;;;;;2.00;1.50;;;;;6.05;85.94;99942.94;4908710;28;102060;-69
2022/11/11 05:22:34;;;;;;;;;1.25;0.50;;;;;6.05;85.34;99946.47;4904702;28;102308;-69
2022/11/11 05:27:47;;;;;;;;;1.00;1.00;;;;;6.03;85.68;99945.78;4914870;28;103078;-69
2022/11/11 05:30:16;;;;;;;;;2.25;2.00;;;;;6.02;85.82;99952.13;4908316;28;104027;-69
2022/11/11 05:32:43;;;;;;;;;6.00;4.00;;;;;5.97;85.26;99962.44;4904944;28;102365;-69
2022/11/11 05:35:14;;;;;;;;;6.75;5.25;;;;;5.92;85.98;99970.03;4902256;28;102491;-69
2022/11/11 05:37:42;;;;;;;;;5.25;4.75;;;;;5.91;85.95;99956.75;4911711;28;102693;-69
2022/11/11 05:40:10;;;;;;;;;6.00;5.50;;;;;5.91;85.67;99962.97;4898526;28;104226;-69
2022/11/11 05:42:41;;;;;;;;;4.25;3.50;;;;;5.89;85.28;99964.09;4911659;28;102233;-69
2022/11/11 05:45:15;;;;;;;;;3.00;2.75;;;;;5.77;85.11;99948.06;4907883;28;102454;-69
2022/11/11 05:47:42;;;;;;;;;6.00;3.00;;;;;5.76;85.97;99973.19;4915932;28;102702;-69
2022/11/11 05:50:09;;;;;;;;;3.00;3.00;;;;;5.73;86.12;99976.16;4912321;28;103828;-69
2022/11/11 05:52:35;;;;;;;;;5.50;5.50;;;;;5.73;85.80;99978.00;4917846;28;102153;-69
2022/11/11 05:55:03;;;;;;;;;2.75;2.75;;;;;5.71;86.11;99977.31;4900933;28;102080;-69
2022/11/11 05:57:30;;;;;;;;;3.75;3.25;;;;;5.71;85.97;99963.88;4909727;28;102393;-70
2022/11/11 05:59:57;;;;;;;;;2.00;1.00;;;;;5.69;85.60;99977.44;4915351;28;104014;-69
2022/11/11 06:02:24;;;;;;;;;3.00;3.00;;;;;5.67;85.90;99983.94;4908753;28;102478;-69
2022/11/11 06:04:53;;;;;;;;;6.50;5.00;;;;;5.62;86.43;99987.03;4908133;28;102181;-69
2022/11/11 06:07:20;;;;;;;;;5.00;5.00;;;;;5.64;86.04;99984.19;4883794;28;102318;-69
2022/11/11 06:09:47;;;;;;;;;7.00;6.75;;;;;5.57;86.32;99980.38;4908232;28;104196;-69
2022/11/11 06:12:13;;;;;;;;;8.50;7.50;;;;;5.57;86.92;99989.25;4914143;28;102346;-69
2022/11/11 06:14:40;;;;;;;;;6.75;3.50;;;;;5.59;86.36;99991.78;4914643;28;102464;-69
2022/11/11 06:17:07;;;;;;;;;5.50;3.75;;;;;5.57;86.41;99991.09;4915618;28;102456;-69
2022/11/11 06:19:34;;;;;;;;;5.25;5.00;;;;;5.58;86.66;99987.44;4911410;28;104017;-69
2022/11/11 06:22:03;;;;;;;;;8.25;6.75;;;;;5.62;86.41;99987.03;4907208;28;102454;-69
2022/11/11 06:24:30;;;;;;;;;9.00;8.00;;;;;5.68;86.09;99986.47;4908800;28;103511;-69
2022/11/11 06:26:57;;;;;;;;;12.75;9.75;;;;;5.70;85.78;99981.81;4902957;28;102189;-70
2022/11/11 06:29:23;;;;;;;;;9.25;8.25;;;;;5.74;85.45;99985.06;4913674;28;103926;-69
2022/11/11 06:31:50;;;;;;;;;7.00;6.00;;;;;5.76;85.32;99983.94;4910054;28;102270;-69
2022/11/11 06:34:17;;;;;;;;;8.00;7.75;;;;;5.78;85.47;99984.66;4909828;28;103074;-69
2022/11/11 06:36:44;;;;;;;;;9.50;8.75;;;;;5.83;85.25;99985.09;4910601;28;102196;-69
2022/11/11 06:39:11;;;;;;;;;7.50;7.00;;;;;5.88;85.59;99975.81;4906803;28;106251;-69
2022/11/11 06:41:38;;;;;;;;;6.00;6.00;;;;;5.92;85.12;99971.88;4913562;28;102825;-69
2022/11/11 06:44:05;;;;;;;;;5.00;5.00;;;;;5.92;84.48;99975.41;4910723;28;102147;-69
2022/11/11 06:46:32;;;;;;;;;2.00;2.00;;;;;5.90;84.22;99977.38;4911847;28;102245;-69
2022/11/11 06:48:59;;;;;;;;;7.50;5.50;;;;;5.92;84.70;99972.72;4914088;28;104037;-69
2022/11/11 06:51:26;;;;;;;;;7.25;7.00;;;;;5.87;84.62;99966.91;4905431;28;102292;-69
2022/11/11 06:53:53;;;;;;;;;6.00;5.25;;;;;5.94;84.75;99978.81;4914897;28;102471;-70
2022/11/11 06:56:20;;;;;;;;;10.00;9.50;;;;;5.96;84.72;99984.88;4925101;28;102356;-70
2022/11/11 06:58:47;;;;;;;;;8.75;8.00;;;;;6.01;84.80;99982.63;4909176;28;104059;-70
2022/11/11 07:01:14;;;;;;;;;11.00;7.00;;;;;6.04;84.61;99982.34;4920404;28;102346;-70
2022/11/11 07:03:41;;;;;;;;;3.00;3.00;;;;;6.07;84.52;99984.78;4928079;28;102427;-69
2022/11/11 07:06:08;;;;;;;;;8.50;7.75;;;;;6.12;84.47;99990.56;4916380;28;103658;-69
2022/11/11 07:08:35;;;;;;;;;6.50;6.50;;;;;6.18;84.27;99984.63;4908327;28;104043;-69
2022/11/11 07:11:02;;;;;;;;;8.25;6.00;;;;;6.25;84.70;99991.16;4908606;28;102356;-70
2022/11/11 07:13:39;;;;;;;;;1.00;1.00;;;;;6.31;84.42;99978.13;4917480;28;102025;-69
2022/11/11 07:16:07;;;;;;;;;4.00;3.00;;;;;6.34;84.45;99978.72;4925393;28;102408;-69
2022/11/11 07:18:34;;;;;;;;;1.50;1.50;;;;;6.39;85.04;99975.63;4907345;28;103982;-70
2022/11/11 07:21:00;;;;;;;;;1.25;1.00;;;;;6.46;84.88;99974.06;4922153;28;102328;-70
2022/11/11 07:23:27;;;;;;;;;4.50;4.50;;;;;6.50;84.87;99976.31;4900219;28;102267;-70
2022/11/11 07:25:54;;;;;;;;;6.50;2.75;;;;;6.57;84.74;99984.69;4924757;28;102086;-69
2022/11/11 07:28:21;;;;;;;;;1.00;0.50;;;;;6.61;84.61;99986.09;4917921;28;104021;-69
2022/11/11 07:30:49;;;;;;;;;2.75;1.50;;;;;6.66;84.72;99987.34;4917275;28;102224;-70
2022/11/11 07:33:15;;;;;;;;;3.50;3.50;;;;;6.72;84.39;99984.09;4921418;28;102382;-69
2022/11/11 07:35:49;;;;;;;;;2.50;2.00;;;;;6.79;83.72;99984.38;4904992;28;102394;-70
2022/11/11 07:51:11;;;;;;;;;7.25;7.00;;;;;7.27;82.18;99945.75;4509332;29;103730;-71
2022/11/11 07:53:58;;;;;;;;;7.50;6.00;;;;;7.44;82.19;99940.44;4537725;29;105983;-72
2022/11/11 07:57:06;;;;;;;;;9.00;6.75;;;;;7.34;82.47;99903.84;4587976;29;103130;-68
2022/11/11 08:00:11;;;;;;;;;7.00;6.75;;;;;7.68;80.74;99928.28;4476098;29;102477;-71
2022/11/11 08:03:33;;;;;;;;;8.00;7.50;;;;;7.84;80.39;99928.47;4603180;29;103156;-71
2022/11/11 08:06:53;;;;;;;;;9.75;9.75;;;;;8.08;78.64;99950.28;4519963;29;108561;-73
2022/11/11 08:10:10;;;;;;;;;9.00;7.50;;;;;8.07;78.23;99913.56;4519591;28;103779;-72
2022/11/11 08:15:58;;;;;;;;;15.00;11.25;;;;;8.22;77.63;99941.69;4986081;28;102539;-70
2022/11/11 08:18:25;;;;;;;;;14.50;14.00;;;;;8.33;76.21;99938.78;4980083;28;104009;-70
2022/11/11 08:20:52;;;;;;;;;13.25;11.25;;;;;8.44;77.30;99938.56;4980992;28;102228;-70
2022/11/11 08:23:31;;;;;;;;;14.00;10.00;;;;;8.52;77.59;99935.06;4977129;28;103064;-70
2022/11/11 08:26:18;;;;;;;;;10.25;9.75;;;;;8.61;76.67;99934.16;4963823;28;102212;-70
2022/11/11 08:28:52;;;;;;;;;15.25;12.00;;;;;8.71;76.33;99944.84;4970994;28;103950;-71
2022/11/11 08:31:19;;;;;;;;;10.75;10.50;;;;;8.80;76.36;99944.75;4975003;28;102552;-70
2022/11/11 08:33:46;;;;;;;;;3.00;3.00;;;;;8.91;76.70;99947.22;4969495;28;102319;-70
2022/11/11 08:36:13;;;;;;;;;7.50;7.00;;;;;9.01;75.12;99940.84;4981895;28;102404;-70
2022/11/11 08:38:46;;;;;;;;;11.00;10.00;;;;;9.08;74.41;99952.72;4964767;28;104043;-70
2022/11/11 08:41:14;;;;;;;;;9.25;7.75;;;;;9.14;75.88;99952.91;4989250;28;102338;-70
2022/11/11 08:43:40;;;;;;;;;12.50;9.75;;;;;9.20;74.51;99964.94;4987303;28;102236;-70
2022/11/11 08:46:10;;;;;;;;;7.25;7.25;;;;;9.14;75.19;99942.13;4990441;28;102289;-69
2022/11/11 08:48:37;;;;;;;;;11.00;9.25;;;;;9.35;74.51;99966.03;4988913;28;104074;-70
2022/11/11 08:51:04;;;;;;;;;9.00;5.50;;;;;9.46;74.80;99976.53;4987596;28;102436;-70
2022/11/11 08:53:31;;;;;;;;;5.00;5.00;;;;;9.55;73.36;99970.19;4983709;28;102339;-70
2022/11/11 08:56:00;;;;;;;;;4.00;3.25;;;;;9.65;73.94;99962.81;4986182;28;102335;-70
2022/11/11 08:58:28;;;;;;;;;7.50;5.00;;;;;9.78;73.83;99963.22;4974131;28;109400;-70
2022/11/11 09:00:55;;;;;;;;;4.00;3.00;;;;;9.93;73.14;99979.66;4988199;28;101975;-70
2022/11/11 09:03:22;;;;;;;;;4.50;4.00;;;;;10.08;73.50;99966.38;4993836;28;102313;-70
2022/11/11 09:05:50;;;;;;;;;3.25;3.25;;;;;10.26;72.56;99967.13;4987835;28;102160;-70
2022/11/11 09:08:17;;;;;;;;;5.00;4.00;;;;;10.46;71.49;99963.09;4989284;28;104194;-70
2022/11/11 09:10:44;;;;;;;;;6.00;5.00;;;;;10.60;70.31;99954.31;4988358;28;102693;-70
2022/11/11 09:13:11;;;;;;;;;5.75;5.00;;;;;10.78;71.18;99959.56;4984072;28;102216;-70
2022/11/11 09:15:38;;;;;;;;;8.75;5.50;;;;;10.93;69.49;99959.72;4985053;28;102189;-71
2022/11/11 09:18:05;;;;;;;;;5.25;4.25;;;;;10.97;69.15;99966.50;4983995;28;103972;-71
2022/11/11 09:20:32;;;;;;;;;6.50;6.25;;;;;11.01;69.98;99963.28;4982391;28;102329;-70
2022/11/11 09:22:59;;;;;;;;;5.75;5.00;;;;;10.99;70.07;99962.59;4982787;28;102353;-70
2022/11/11 09:25:26;;;;;;;;;4.00;4.00;;;;;11.04;69.14;99957.50;4975918;28;102207;-71
2022/11/11 09:27:58;;;;;;;;;5.25;4.25;;;;;11.09;69.19;99971.38;4966861;28;104012;-70
2022/11/11 09:30:27;;;;;;;;;2.25;2.25;;;;;11.05;69.75;99975.44;4969880;28;102329;-71
2022/11/11 09:32:59;;;;;;;;;5.50;5.00;;;;;11.05;68.79;99963.78;4970215;28;102552;-71
2022/11/11 09:35:26;;;;;;;;;7.00;6.00;;;;;10.96;69.45;99972.91;4971546;28;102914;-70
2022/11/11 09:37:59;;;;;;;;;5.50;5.25;;;;;10.98;68.77;99963.63;4974512;28;103986;-70
2022/11/11 09:40:59;;;;;;;;;5.25;5.00;;;;;11.03;69.87;99966.63;4965493;28;102507;-70
2022/11/11 09:43:53;;;;;;;;;9.50;8.25;;;;;11.01;69.68;99970.53;4950819;28;103868;-70
2022/11/11 09:46:42;;;;;;;;;10.75;7.75;;;;;10.99;69.18;99969.84;4957083;28;103738;-71
2022/11/11 09:49:28;;;;;;;;;20.25;15.50;;;;;10.81;70.05;99994.38;4969682;28;108726;-70
2022/11/11 09:52:15;;;;;;;;;10.50;9.25;;;;;10.82;70.18;99989.81;4973840;28;102274;-70
2022/11/11 09:54:42;;;;;;;;;7.00;5.75;;;;;10.85;69.88;99984.09;4971453;28;102180;-71
2022/11/11 09:57:34;;;;;;;;;7.75;6.25;;;;;10.81;70.29;99985.44;4976779;28;102569;-71
2022/11/11 10:00:07;;;;;;;;;8.50;6.25;;;;;10.82;70.67;99970.88;4972289;28;108640;-72
2022/11/11 10:02:40;;;;;;;;;8.50;7.50;;;;;10.67;69.33;99976.16;4983277;28;102462;-70
2022/11/11 10:05:17;;;;;;;;;8.00;8.00;;;;;10.72;69.54;99982.72;4971746;28;102110;-71
2022/11/11 10:07:52;;;;;;;;;8.50;6.50;;;;;10.76;69.94;99974.28;4974491;28;102155;-70
2022/11/11 10:10:37;;;;;;;;;3.00;3.00;;;;;10.88;70.23;99972.91;4973090;28;103920;-71
2022/11/11 10:13:22;;;;;;;;;12.75;10.50;;;;;10.86;69.80;99985.75;4971969;28;102213;-71
2022/11/11 10:16:08;;;;;;;;;13.75;11.25;;;;;10.98;69.45;99981.72;4981442;28;102371;-71
2022/11/11 10:18:44;;;;;;;;;15.25;13.25;;;;;10.92;70.23;99985.94;4972074;28;102560;-71
2022/11/11 10:21:15;;;;;;;;;21.25;15.00;;;;;10.83;69.38;99986.09;4966760;28;104263;-71
2022/11/11 10:23:47;;;;;;;;;17.25;15.00;;;;;11.06;69.19;99976.28;4971545;28;102317;-71
2022/11/11 10:26:39;;;;;;;;;12.00;11.00;;;;;11.21;68.83;99971.03;4974697;28;102313;-71
2022/11/11 10:29:16;;;;;;;;;6.75;6.75;;;;;11.21;68.63;99965.63;4962713;28;102194;-71
2022/11/11 10:31:48;;;;;;;;;13.50;13.00;;;;;11.09;68.49;99960.56;4955862;28;103998;-71
2022/11/11 10:34:17;;;;;;;;;21.25;16.00;;;;;11.04;68.48;99962.06;4972971;28;102035;-71
2022/11/11 10:36:49;;;;;;;;;12.75;12.00;;;;;11.10;68.49;99962.25;4972434;28;102424;-71
2022/11/11 10:39:27;;;;;;;;;15.00;13.00;;;;;11.03;68.23;99952.28;4973765;28;102268;-70
2022/11/11 10:41:54;;;;;;;;;13.75;11.00;;;;;11.21;67.60;99963.78;4973429;28;103500;-70
2022/11/11 10:44:25;;;;;;;;;15.25;12.25;;;;;11.24;67.71;99957.16;4957732;28;102180;-70
2022/11/11 10:46:58;;;;;;;;;15.25;11.25;;;;;11.35;68.42;99962.19;4981702;28;102459;-70
2022/11/11 10:49:41;;;;;;;;;12.00;11.00;;;;;11.50;67.76;99953.19;4970976;28;102515;-71
2022/11/11 10:52:37;;;;;;;;;14.25;12.00;;;;;11.74;67.09;99951.47;4978083;28;108552;-71
2022/11/11 10:55:24;;;;;;;;;9.25;8.75;;;;;11.86;66.52;99945.47;4964489;28;101977;-70
2022/11/11 10:57:54;;;;;;;;;7.50;5.00;;;;;12.03;66.19;99943.50;4967919;28;102147;-70
2022/11/11 11:00:21;;;;;;;;;13.50;11.75;;;;;11.95;65.70;99940.84;4971002;28;102910;-71
2022/11/11 11:02:55;;;;;;;;;12.50;10.00;;;;;12.01;65.36;99941.00;4970250;28;103645;-70
2022/11/11 11:05:30;;;;;;;;;13.50;10.75;;;;;12.07;66.60;99929.41;4972596;28;102290;-70
2022/11/11 11:08:07;;;;;;;;;8.75;8.75;;;;;12.31;65.29;99943.84;4976489;28;105368;-70
2022/11/11 11:10:42;;;;;;;;;5.50;5.50;;;;;12.45;63.27;99932.25;4972793;28;102308;-70
2022/11/11 11:13:35;;;;;;;;;6.00;4.75;;;;;12.55;63.79;99942.84;4973215;28;104270;-71
2022/11/11 11:16:07;;;;;;;;;6.00;5.25;;;;;12.55;64.91;99932.00;4960151;28;102702;-71
2022/11/11 11:18:34;;;;;;;;;7.00;6.00;;;;;12.62;63.05;99927.53;4969088;28;101920;-71
2022/11/11 11:21:09;;;;;;;;;4.50;4.25;;;;;12.70;62.87;99928.31;4969647;28;102266;-70
2022/11/11 11:23:44;;;;;;;;;8.00;5.50;;;;;12.72;61.94;99933.56;4971705;28;103757;-70
2022/11/11 11:26:13;;;;;;;;;6.25;5.75;;;;;12.64;63.01;99939.06;4960441;28;102241;-70
2022/11/11 11:28:54;;;;;;;;;6.75;5.75;;;;;12.60;61.83;99949.44;4968222;28;102617;-69
2022/11/11 11:31:41;;;;;;;;;7.00;5.25;;;;;12.30;62.87;99898.78;4968062;28;102097;-71
2022/11/11 11:34:08;;;;;;;;;8.25;7.00;;;;;12.56;62.17;99944.56;4969126;28;108568;-71
2022/11/11 11:36:35;;;;;;;;;6.00;5.00;;;;;12.65;62.48;99943.47;4972734;28;102453;-71
2022/11/11 11:39:03;;;;;;;;;6.00;5.00;;;;;12.53;62.03;99930.31;4968107;28;102624;-71
2022/11/11 11:41:49;;;;;;;;;5.25;5.00;;;;;12.71;62.69;99934.56;4970191;28;103604;-71
2022/11/11 11:44:29;;;;;;;;;4.75;3.25;;;;;12.87;63.11;99939.88;4974322;28;108778;-70
2022/11/11 11:47:13;;;;;;;;;6.25;4.75;;;;;13.00;62.18;99937.38;4970753;28;102040;-70
2022/11/11 11:50:09;;;;;;;;;9.75;7.00;;;;;13.11;62.42;99928.81;4970623;28;102188;-72
2022/11/11 11:52:58;;;;;;;;;8.00;7.00;;;;;13.21;61.01;99923.97;4962065;28;102176;-69
2022/11/11 11:55:32;;;;;;;;;13.00;11.50;;;;;13.17;60.20;99928.09;4966417;28;104037;-71
2022/11/11 11:58:40;;;;;;;;;9.25;7.25;;;;;12.93;62.04;99933.69;4967230;28;102296;-70
2022/11/11 12:01:26;;;;;;;;;13.50;12.25;;;;;12.80;60.19;99917.19;4960529;28;102203;-70
2022/11/11 12:04:11;;;;;;;;;13.00;11.50;;;;;12.78;61.60;99920.13;4973320;28;102049;-70
2022/11/11 12:07:07;;;;;;;;;12.75;10.25;;;;;12.73;62.01;99921.69;4964598;28;108244;-70
2022/11/11 12:09:51;;;;;;;;;14.75;12.50;;;;;12.70;61.72;99919.34;4957272;28;102989;-71
2022/11/11 12:12:35;;;;;;;;;9.00;8.75;;;;;12.63;61.59;99921.94;4966282;28;102308;-71
2022/11/11 12:15:35;;;;;;;;;19.50;18.25;;;;;12.42;62.92;99927.19;4966079;28;102400;-69
2022/11/11 12:18:57;;;;;;;;;12.00;10.25;;;;;12.52;62.57;99917.75;4963772;28;107651;-70
2022/11/11 12:21:33;;;;;;;;;10.25;8.50;;;;;12.66;63.21;99920.72;4890408;28;102399;-70
2022/11/11 12:41:35;;;;;;;;;14.00;12.00;;;;;12.47;63.31;99884.91;4847408;28;104219;-73
2022/11/11 12:44:10;;;;;;;;;12.00;11.00;;;;;12.45;63.42;99895.09;4850214;28;105850;-74
2022/11/11 12:47:04;;;;;;;;;12.50;11.75;;;;;12.46;63.44;99906.81;4839605;28;102298;-73
2022/11/11 12:49:31;;;;;;;;;9.00;8.25;;;;;12.49;63.05;99901.84;4854388;28;102187;-73
2022/11/11 12:51:58;;;;;;;;;5.50;5.00;;;;;12.45;63.46;99900.53;4854475;28;102345;-73
2022/11/11 12:54:57;;;;;;;;;5.25;4.75;;;;;12.45;63.08;99905.97;4853488;28;104255;-74
2022/11/11 12:57:36;;;;;;;;;8.75;7.75;;;;;12.31;63.45;99898.59;4826645;28;102309;-73
2022/11/11 13:00:17;;;;;;;;;19.00;14.75;;;;;12.19;63.62;99904.63;4854832;28;102804;-73
2022/11/11 13:02:58;;;;;;;;;13.25;12.00;;;;;12.24;64.37;99903.06;4855358;28;102460;-74
2022/11/11 13:05:50;;;;;;;;;13.75;12.00;;;;;12.20;63.35;99907.16;4845784;28;104849;-73
2022/11/11 13:08:23;;;;;;;;;9.25;7.75;;;;;12.23;64.11;99895.94;4839308;28;102503;-71
2022/11/11 13:11:24;;;;;;;;;19.75;12.50;;;;;12.10;64.85;99876.72;4856528;28;102914;-72
2022/11/11 13:14:05;;;;;;;;;13.25;11.50;;;;;12.18;64.05;99892.09;4867480;28;102025;-71
2022/11/11 13:16:32;;;;;;;;;8.50;7.50;;;;;12.16;64.68;99886.84;4855125;28;108669;-71
2022/11/11 13:19:24;;;;;;;;;10.50;9.50;;;;;12.00;64.25;99857.13;4854428;28;103153;-72
2022/11/11 13:21:59;;;;;;;;;20.00;17.50;;;;;11.96;64.72;99894.59;4857540;28;102246;-72
2022/11/11 13:24:27;;;;;;;;;14.50;13.75;;;;;12.01;65.25;99902.19;4858842;28;102870;-71
2022/11/11 13:27:00;;;;;;;;;17.25;13.50;;;;;11.87;65.48;99900.25;4858743;28;103997;-72
2022/11/11 13:29:34;;;;;;;;;12.75;11.50;;;;;11.97;65.85;99901.72;4853072;28;103066;-71
2022/11/11 13:32:04;;;;;;;;;12.00;9.00;;;;;11.98;64.51;99884.41;4858752;28;102211;-72